MUC | München Airways

 METAR UND TAF INFORMATION

METAR FOR DTNH
ADDS - METARS form results

(0854 UTC 22 March 2019)
Data provider http://aviationweather.gov/metar/data/
 
METAR text: DTNH 220830Z 01010KT CAVOK 14/11 Q1019
Conditions at: DTNH (ENFIDHA , TN) observed 0830 UTC 22 March 2019
Temperature: 14.0°C (57°F)
Dewpoint: 11.0°C (52°F) [RH = 82%]
Pressure (altimeter): 30.09 inches Hg (1019.0 mb)
Winds: from the N (10 degrees) at 12 MPH (10 knots; 5.1 m/s)
Visibility: 6 or more miles (10+ km)
Ceiling: ceiling and visibility are OK
Clouds: unknown
Weather: no significant weather observed at this time

METAR text: DTNH 220800Z 35009KT CAVOK 14/11 Q1019
Conditions at: DTNH (ENFIDHA , TN) observed 0800 UTC 22 March 2019
Temperature: 14.0°C (57°F)
Dewpoint: 11.0°C (52°F) [RH = 82%]
Pressure (altimeter): 30.09 inches Hg (1019.0 mb)
Winds: from the N (350 degrees) at 10 MPH (9 knots; 4.6 m/s)
Visibility: 6 or more miles (10+ km)
Ceiling: ceiling and visibility are OK
Clouds: unknown
Weather: no significant weather observed at this time

Forecast for: DTNH (ENFIDHA , TN)
Text: TAF DTNH 220500Z 2206/2306 VRB02KT CAVOK
Forecast period: 0600 UTC 22 March 2019 to 0600 UTC 23 March 2019
Forecast type: FROM: standard forecast or significant change
Winds: variable direction winds at 2 MPH (2 knots; 1.0 m/s)
Visibility: 6 or more miles 10+ km)
Ceiling: unknown
Clouds: missing
Weather: NSW  (no significant weather)
Text: TEMPO 2212/2302 3000 TS SHRA FEW023CB
Forecast period: 1200 UTC 22 March 2019 to 0200 UTC 23 March 2019
Forecast type: TEMPORARY: The following changes expected for less than half the time period
Visibility: 1.86 miles (2.99 km)
Ceiling: at least 12,000 feet AGL
Clouds: few clouds at 2300 feet AGL
Weather: TS SHRA  (thunderstorm, rain showers)

 FLUGHAFENKARTE

 RUNWAY INFORMATION

 AIRPORT FREQUENCIES

 AIRPORT NEAR NAVIGATION AIDS